sensor_id;sensor_type;location;lat;lon;timestamp;pressure;altitude;pressure_sealevel;temperature;humidity
59337;BME280;45115;52.002;4.686;2024-01-07T00:03:55;102028.16;;;1.44;82.57
59337;BME280;45115;52.002;4.686;2024-01-07T00:06:21;102025.56;;;1.41;81.97
59337;BME280;45115;52.002;4.686;2024-01-07T00:08:48;102034.03;;;1.43;81.84
59337;BME280;45115;52.002;4.686;2024-01-07T00:11:15;102027.16;;;1.34;82.11
59337;BME280;45115;52.002;4.686;2024-01-07T00:13:41;102025.47;;;1.34;81.74
59337;BME280;45115;52.002;4.686;2024-01-07T00:16:08;102035.53;;;1.31;81.86
59337;BME280;45115;52.002;4.686;2024-01-07T00:18:35;102037.34;;;1.40;81.34
59337;BME280;45115;52.002;4.686;2024-01-07T00:21:03;102046.63;;;1.40;81.89
59337;BME280;45115;52.002;4.686;2024-01-07T00:23:30;102047.41;;;1.35;81.95
59337;BME280;45115;52.002;4.686;2024-01-07T00:25:56;102045.72;;;1.34;81.76
59337;BME280;45115;52.002;4.686;2024-01-07T00:28:23;102049.81;;;1.29;81.91
59337;BME280;45115;52.002;4.686;2024-01-07T00:30:50;102058.94;;;1.21;81.22
59337;BME280;45115;52.002;4.686;2024-01-07T00:33:16;102057.28;;;1.23;81.01
59337;BME280;45115;52.002;4.686;2024-01-07T00:35:43;102055.66;;;1.25;81.26
59337;BME280;45115;52.002;4.686;2024-01-07T00:38:11;102052.31;;;1.28;81.76
59337;BME280;45115;52.002;4.686;2024-01-07T00:40:38;102060.59;;;1.19;82.06
59337;BME280;45115;52.002;4.686;2024-01-07T00:43:05;102054.69;;;1.19;82.21
59337;BME280;45115;52.002;4.686;2024-01-07T00:45:32;102066.63;;;1.26;82.10
59337;BME280;45115;52.002;4.686;2024-01-07T00:47:58;102064.00;;;1.21;82.90
59337;BME280;45115;52.002;4.686;2024-01-07T00:50:25;102055.53;;;1.19;82.09
59337;BME280;45115;52.002;4.686;2024-01-07T00:52:51;102065.72;;;1.22;82.23
59337;BME280;45115;52.002;4.686;2024-01-07T00:55:19;102062.25;;;1.19;82.38
59337;BME280;45115;52.002;4.686;2024-01-07T00:57:47;102063.06;;;1.16;82.81
59337;BME280;45115;52.002;4.686;2024-01-07T01:00:14;102055.41;;;1.13;82.80
59337;BME280;45115;52.002;4.686;2024-01-07T01:02:42;102061.38;;;1.17;82.83
59337;BME280;45115;52.002;4.686;2024-01-07T01:05:08;102060.59;;;1.19;83.23
59337;BME280;45115;52.002;4.686;2024-01-07T01:07:35;102059.59;;;1.13;83.32
59337;BME280;45115;52.002;4.686;2024-01-07T01:10:02;102071.50;;;1.17;83.55
59337;BME280;45115;52.002;4.686;2024-01-07T01:12:31;102076.53;;;1.17;83.31
59337;BME280;45115;52.002;4.686;2024-01-07T01:14:57;102077.34;;;1.14;82.11
59337;BME280;45115;52.002;4.686;2024-01-07T01:17:24;102081.63;;;1.18;82.58
59337;BME280;45115;52.002;4.686;2024-01-07T01:19:51;102075.69;;;1.16;82.73
59337;BME280;45115;52.002;4.686;2024-01-07T01:22:17;102079.09;;;1.18;82.35
59337;BME280;45115;52.002;4.686;2024-01-07T01:24:44;102086.53;;;1.09;82.09
59337;BME280;45115;52.002;4.686;2024-01-07T01:27:11;102086.53;;;1.11;81.92
59337;BME280;45115;52.002;4.686;2024-01-07T01:29:40;102085.75;;;1.13;82.06
59337;BME280;45115;52.002;4.686;2024-01-07T01:32:06;102084.88;;;1.13;81.99
59337;BME280;45115;52.002;4.686;2024-01-07T01:34:33;102084.91;;;1.14;82.77
59337;BME280;45115;52.002;4.686;2024-01-07T01:36:59;102088.34;;;1.16;82.59
59337;BME280;45115;52.002;4.686;2024-01-07T01:39:26;102097.56;;;1.14;82.93
59337;BME280;45115;52.002;4.686;2024-01-07T01:41:53;102092.47;;;1.13;82.29
59337;BME280;45115;52.002;4.686;2024-01-07T01:44:19;102099.03;;;1.03;82.49
59337;BME280;45115;52.002;4.686;2024-01-07T01:46:47;102098.16;;;1.01;83.46
59337;BME280;45115;52.002;4.686;2024-01-07T01:49:14;102098.91;;;0.97;82.31
59337;BME280;45115;52.002;4.686;2024-01-07T01:51:41;102103.91;;;0.94;83.07
59337;BME280;45115;52.002;4.686;2024-01-07T01:54:08;102107.25;;;0.93;83.01
59337;BME280;45115;52.002;4.686;2024-01-07T01:56:35;102104.72;;;0.93;83.52
59337;BME280;45115;52.002;4.686;2024-01-07T01:59:02;102111.47;;;0.94;82.49
59337;BME280;45115;52.002;4.686;2024-01-07T02:01:28;102107.13;;;0.87;83.22
59337;BME280;45115;52.002;4.686;2024-01-07T02:04:00;102113.09;;;0.90;83.66
59337;BME280;45115;52.002;4.686;2024-01-07T02:06:26;102113.22;;;0.96;83.46
59337;BME280;45115;52.002;4.686;2024-01-07T02:08:54;102119.06;;;0.94;83.75
59337;BME280;45115;52.002;4.686;2024-01-07T02:11:22;102116.56;;;0.95;83.45
59337;BME280;45115;52.002;4.686;2024-01-07T02:13:49;102117.50;;;0.99;83.88
59337;BME280;45115;52.002;4.686;2024-01-07T02:16:15;102118.34;;;0.99;82.74
59337;BME280;45115;52.002;4.686;2024-01-07T02:18:43;102126.69;;;0.95;82.57
59337;BME280;45115;52.002;4.686;2024-01-07T02:21:13;102125.06;;;0.99;82.71
59337;BME280;45115;52.002;4.686;2024-01-07T02:23:40;102133.56;;;1.02;82.74
59337;BME280;45115;52.002;4.686;2024-01-07T02:26:08;102132.53;;;0.93;82.97
59337;BME280;45115;52.002;4.686;2024-01-07T02:28:35;102132.53;;;0.93;83.40
59337;BME280;45115;52.002;4.686;2024-01-07T02:31:02;102129.25;;;0.97;83.70
59337;BME280;45115;52.002;4.686;2024-01-07T02:33:28;102134.47;;;1.05;83.41
59337;BME280;45115;52.002;4.686;2024-01-07T02:35:56;102131.88;;;1.01;83.21
59337;BME280;45115;52.002;4.686;2024-01-07T02:38:23;102133.44;;;0.96;82.57
59337;BME280;45115;52.002;4.686;2024-01-07T02:40:49;102143.53;;;0.95;83.69
59337;BME280;45115;52.002;4.686;2024-01-07T02:43:17;102159.56;;;0.97;83.99
59337;BME280;45115;52.002;4.686;2024-01-07T02:45:44;102155.31;;;0.94;83.52
59337;BME280;45115;52.002;4.686;2024-01-07T02:48:11;102150.25;;;0.94;83.45
59337;BME280;45115;52.002;4.686;2024-01-07T02:50:37;102155.31;;;0.94;83.50
59337;BME280;45115;52.002;4.686;2024-01-07T02:53:04;102156.06;;;0.90;83.24
59337;BME280;45115;52.002;4.686;2024-01-07T02:55:31;102160.06;;;0.82;83.86
59337;BME280;45115;52.002;4.686;2024-01-07T02:58:00;102151.63;;;0.80;83.91
59337;BME280;45115;52.002;4.686;2024-01-07T03:00:28;102171.78;;;0.77;84.36
59337;BME280;45115;52.002;4.686;2024-01-07T03:02:55;102165.75;;;0.72;84.78
59337;BME280;45115;52.002;4.686;2024-01-07T03:05:21;102156.59;;;0.76;84.53
59337;BME280;45115;52.002;4.686;2024-01-07T03:07:48;102165.13;;;0.81;84.94
59337;BME280;45115;52.002;4.686;2024-01-07T03:10:15;102160.97;;;0.84;84.86
59337;BME280;45115;52.002;4.686;2024-01-07T03:12:41;102168.53;;;0.84;85.32
59337;BME280;45115;52.002;4.686;2024-01-07T03:15:08;102165.13;;;0.81;85.63
59337;BME280;45115;52.002;4.686;2024-01-07T03:17:36;102172.88;;;0.90;85.03
59337;BME280;45115;52.002;4.686;2024-01-07T03:20:03;102166.00;;;0.84;84.31
59337;BME280;45115;52.002;4.686;2024-01-07T03:22:30;102180.22;;;0.78;84.91
59337;BME280;45115;52.002;4.686;2024-01-07T03:24:56;102185.31;;;0.79;84.26
59337;BME280;45115;52.002;4.686;2024-01-07T03:27:23;102183.56;;;0.77;84.69
59337;BME280;45115;52.002;4.686;2024-01-07T03:29:50;102179.44;;;0.80;85.32
59337;BME280;45115;52.002;4.686;2024-01-07T03:32:16;102178.50;;;0.77;84.78
59337;BME280;45115;52.002;4.686;2024-01-07T03:34:45;102184.34;;;0.74;85.09
59337;BME280;45115;52.002;4.686;2024-01-07T03:37:14;102183.41;;;0.71;85.24
59337;BME280;45115;52.002;4.686;2024-01-07T03:39:41;102185.94;;;0.71;85.19
59337;BME280;45115;52.002;4.686;2024-01-07T03:42:08;102187.63;;;0.70;85.51
59337;BME280;45115;52.002;4.686;2024-01-07T03:44:37;102191.00;;;0.71;85.64
59337;BME280;45115;52.002;4.686;2024-01-07T03:47:03;102199.38;;;0.70;85.56
59337;BME280;45115;52.002;4.686;2024-01-07T03:49:30;102206.22;;;0.74;85.40
59337;BME280;45115;52.002;4.686;2024-01-07T03:51:58;102206.22;;;0.74;85.44
59337;BME280;45115;52.002;4.686;2024-01-07T03:54:25;102215.47;;;0.73;85.65
59337;BME280;45115;52.002;4.686;2024-01-07T03:56:51;102216.97;;;0.65;85.34
59337;BME280;45115;52.002;4.686;2024-01-07T03:59:18;102219.59;;;0.70;85.88
59337;BME280;45115;52.002;4.686;2024-01-07T04:01:45;102226.28;;;0.67;85.35
59337;BME280;45115;52.002;4.686;2024-01-07T04:04:13;102227.22;;;0.71;85.28
59337;BME280;45115;52.002;4.686;2024-01-07T04:06:39;102244.16;;;0.75;85.20
59337;BME280;45115;52.002;4.686;2024-01-07T04:09:07;102239.00;;;0.71;85.36
59337;BME280;45115;52.002;4.686;2024-01-07T04:11:39;102235.72;;;0.75;85.20
59337;BME280;45115;52.002;4.686;2024-01-07T04:14:05;102247.34;;;0.68;85.38
59337;BME280;45115;52.002;4.686;2024-01-07T04:16:32;102237.22;;;0.66;85.28
59337;BME280;45115;52.002;4.686;2024-01-07T04:18:58;102239.72;;;0.66;84.98
59337;BME280;45115;52.002;4.686;2024-01-07T04:21:25;102243.16;;;0.68;84.95
59337;BME280;45115;52.002;4.686;2024-01-07T04:23:52;102241.53;;;0.71;85.49
59337;BME280;45115;52.002;4.686;2024-01-07T04:26:20;102247.47;;;0.73;85.35
59337;BME280;45115;52.002;4.686;2024-01-07T04:28:46;102248.91;;;0.63;85.43
59337;BME280;45115;52.002;4.686;2024-01-07T04:31:13;102256.63;;;0.69;84.89
59337;BME280;45115;52.002;4.686;2024-01-07T04:33:40;102255.00;;;0.71;84.37
59337;BME280;45115;52.002;4.686;2024-01-07T04:36:07;102260.09;;;0.73;84.50
59337;BME280;45115;52.002;4.686;2024-01-07T04:38:34;102258.31;;;0.68;84.47
59337;BME280;45115;52.002;4.686;2024-01-07T04:41:01;102260.94;;;0.73;84.30
59337;BME280;45115;52.002;4.686;2024-01-07T04:43:30;102254.13;;;0.69;84.83
59337;BME280;45115;52.002;4.686;2024-01-07T04:45:57;102255.97;;;0.76;85.12
59337;BME280;45115;52.002;4.686;2024-01-07T04:48:24;102259.31;;;0.75;85.62
59337;BME280;45115;52.002;4.686;2024-01-07T04:50:50;102263.44;;;0.72;84.27
59337;BME280;45115;52.002;4.686;2024-01-07T04:53:17;102259.88;;;0.63;84.44
59337;BME280;45115;52.002;4.686;2024-01-07T04:55:43;102261.38;;;0.57;85.05
59337;BME280;45115;52.002;4.686;2024-01-07T04:58:10;102283.34;;;0.59;84.82
59337;BME280;45115;52.002;4.686;2024-01-07T05:00:38;102274.16;;;0.63;84.71
59337;BME280;45115;52.002;4.686;2024-01-07T05:03:04;102277.47;;;0.60;85.06
59337;BME280;45115;52.002;4.686;2024-01-07T05:05:31;102274.94;;;0.60;85.47
59337;BME280;45115;52.002;4.686;2024-01-07T05:07:58;102286.91;;;0.67;85.23
59337;BME280;45115;52.002;4.686;2024-01-07T05:10:26;102297.03;;;0.67;85.46
59337;BME280;45115;52.002;4.686;2024-01-07T05:12:52;102296.84;;;0.61;85.52
59337;BME280;45115;52.002;4.686;2024-01-07T05:15:19;102299.44;;;0.63;85.61
59337;BME280;45115;52.002;4.686;2024-01-07T05:17:47;102296.78;;;0.58;86.29
59337;BME280;45115;52.002;4.686;2024-01-07T05:20:15;102302.69;;;0.59;85.42
59337;BME280;45115;52.002;4.686;2024-01-07T05:22:42;102303.47;;;0.56;85.62
59337;BME280;45115;52.002;4.686;2024-01-07T05:25:08;102305.94;;;0.55;85.47
59337;BME280;45115;52.002;4.686;2024-01-07T05:27:35;102301.75;;;0.55;85.82
59337;BME280;45115;52.002;4.686;2024-01-07T05:30:02;102312.75;;;0.57;86.24
59337;BME280;45115;52.002;4.686;2024-01-07T05:32:29;102317.16;;;0.64;86.02
59337;BME280;45115;52.002;4.686;2024-01-07T05:34:57;102306.97;;;0.61;86.07
59337;BME280;45115;52.002;4.686;2024-01-07T05:37:23;102320.41;;;0.60;85.88
59337;BME280;45115;52.002;4.686;2024-01-07T05:39:50;102333.88;;;0.61;85.65
59337;BME280;45115;52.002;4.686;2024-01-07T05:42:17;102321.25;;;0.61;85.75
59337;BME280;45115;52.002;4.686;2024-01-07T05:44:44;102328.75;;;0.58;85.83
59337;BME280;45115;52.002;4.686;2024-01-07T05:47:11;102333.19;;;0.66;85.17
59337;BME280;45115;52.002;4.686;2024-01-07T05:49:37;102334.94;;;0.69;85.29
59337;BME280;45115;52.002;4.686;2024-01-07T05:52:05;102340.78;;;0.66;85.09
59337;BME280;45115;52.002;4.686;2024-01-07T05:54:32;102341.56;;;0.64;85.16
59337;BME280;45115;52.002;4.686;2024-01-07T05:56:59;102343.19;;;0.62;84.84
59337;BME280;45115;52.002;4.686;2024-01-07T05:59:25;102342.41;;;0.64;84.57
59337;BME280;45115;52.002;4.686;2024-01-07T06:01:58;102345.75;;;0.63;84.51
59337;BME280;45115;52.002;4.686;2024-01-07T06:04:24;102342.41;;;0.64;83.99
59337;BME280;45115;52.002;4.686;2024-01-07T06:06:51;102354.22;;;0.65;83.73
59337;BME280;45115;52.002;4.686;2024-01-07T06:09:19;102358.53;;;0.70;83.78
59337;BME280;45115;52.002;4.686;2024-01-07T06:11:45;102356.00;;;0.70;84.41
59337;BME280;45115;52.002;4.686;2024-01-07T06:14:12;102364.31;;;0.65;84.05
59337;BME280;45115;52.002;4.686;2024-01-07T06:16:39;102359.41;;;0.70;83.85
59337;BME280;45115;52.002;4.686;2024-01-07T06:19:06;102375.47;;;0.72;83.41
59337;BME280;45115;52.002;4.686;2024-01-07T06:21:32;102377.03;;;0.68;83.86
59337;BME280;45115;52.002;4.686;2024-01-07T06:23:59;102373.56;;;0.65;84.54
59337;BME280;45115;52.002;4.686;2024-01-07T06:26:27;102382.00;;;0.65;84.09
59337;BME280;45115;52.002;4.686;2024-01-07T06:28:54;102381.88;;;0.61;85.36
59337;BME280;45115;52.002;4.686;2024-01-07T06:31:20;102382.09;;;0.68;85.01
59337;BME280;45115;52.002;4.686;2024-01-07T06:33:47;102389.75;;;0.72;85.08
59337;BME280;45115;52.002;4.686;2024-01-07T06:36:13;102400.75;;;0.74;85.15
59337;BME280;45115;52.002;4.686;2024-01-07T06:38:40;102398.06;;;0.67;84.37
59337;BME280;45115;52.002;4.686;2024-01-07T06:41:07;102396.19;;;0.60;84.07
59337;BME280;45115;52.002;4.686;2024-01-07T06:43:35;102402.19;;;0.64;84.66
59337;BME280;45115;52.002;4.686;2024-01-07T06:46:01;102413.22;;;0.67;84.65
59337;BME280;45115;52.002;4.686;2024-01-07T06:48:28;102416.56;;;0.66;84.32
59337;BME280;45115;52.002;4.686;2024-01-07T06:50:58;102426.06;;;0.75;84.11
59337;BME280;45115;52.002;4.686;2024-01-07T06:53:24;102418.50;;;0.75;83.76
59337;BME280;45115;52.002;4.686;2024-01-07T06:55:51;102429.25;;;0.68;83.84
59337;BME280;45115;52.002;4.686;2024-01-07T06:58:17;102428.28;;;0.64;83.32
59337;BME280;45115;52.002;4.686;2024-01-07T07:00:45;102435.03;;;0.64;83.32
59337;BME280;45115;52.002;4.686;2024-01-07T07:03:12;102438.50;;;0.67;83.30
59337;BME280;45115;52.002;4.686;2024-01-07T07:05:39;102441.97;;;0.71;82.73
59337;BME280;45115;52.002;4.686;2024-01-07T07:08:06;102454.50;;;0.68;83.21
59337;BME280;45115;52.002;4.686;2024-01-07T07:10:32;102446.63;;;0.57;82.48
59337;BME280;45115;52.002;4.686;2024-01-07T07:12:59;102441.50;;;0.54;82.78
59337;BME280;45115;52.002;4.686;2024-01-07T07:15:26;102450.09;;;0.61;82.99
59337;BME280;45115;52.002;4.686;2024-01-07T07:17:55;102458.44;;;0.58;82.48
59337;BME280;45115;52.002;4.686;2024-01-07T07:20:22;102460.28;;;0.64;82.50
59337;BME280;45115;52.002;4.686;2024-01-07T07:22:49;102463.66;;;0.64;82.38
59337;BME280;45115;52.002;4.686;2024-01-07T07:25:16;102470.50;;;0.68;82.28
59337;BME280;45115;52.002;4.686;2024-01-07T07:27:42;102471.28;;;0.66;82.19
59337;BME280;45115;52.002;4.686;2024-01-07T07:30:09;102482.34;;;0.70;82.90
59337;BME280;45115;52.002;4.686;2024-01-07T07:32:39;102481.38;;;0.66;82.15
59337;BME280;45115;52.002;4.686;2024-01-07T07:35:07;102495.72;;;0.67;82.41
59337;BME280;45115;52.002;4.686;2024-01-07T07:37:34;102483.97;;;0.67;83.14
59337;BME280;45115;52.002;4.686;2024-01-07T07:40:00;102501.59;;;0.66;83.33
59337;BME280;45115;52.002;4.686;2024-01-07T07:42:27;102502.28;;;0.60;82.94
59337;BME280;45115;52.002;4.686;2024-01-07T07:44:54;102506.28;;;0.52;83.41
59337;BME280;45115;52.002;4.686;2024-01-07T07:47:21;102516.44;;;0.55;83.09
59337;BME280;45115;52.002;4.686;2024-01-07T07:49:48;102522.34;;;0.54;83.65
59337;BME280;45115;52.002;4.686;2024-01-07T07:52:18;102521.53;;;0.57;83.16
59337;BME280;45115;52.002;4.686;2024-01-07T07:54:47;102523.16;;;0.55;83.28
59337;BME280;45115;52.002;4.686;2024-01-07T07:57:14;102529.16;;;0.58;83.13
59337;BME280;45115;52.002;4.686;2024-01-07T07:59:41;102539.97;;;0.53;82.55
59337;BME280;45115;52.002;4.686;2024-01-07T08:02:08;102538.22;;;0.50;82.56
59337;BME280;45115;52.002;4.686;2024-01-07T08:04:35;102528.81;;;0.46;83.02
59337;BME280;45115;52.002;4.686;2024-01-07T08:07:01;102538.94;;;0.46;82.07
59337;BME280;45115;52.002;4.686;2024-01-07T08:09:29;102533.69;;;0.40;82.76
59337;BME280;45115;52.002;4.686;2024-01-07T08:11:58;102545.78;;;0.50;82.67
59337;BME280;45115;52.002;4.686;2024-01-07T08:14:25;102548.47;;;0.56;83.02
59337;BME280;45115;52.002;4.686;2024-01-07T08:16:52;102550.13;;;0.54;82.76
59337;BME280;45115;52.002;4.686;2024-01-07T08:19:18;102550.88;;;0.52;83.56
59337;BME280;45115;52.002;4.686;2024-01-07T08:21:45;102553.41;;;0.52;82.69
59337;BME280;45115;52.002;4.686;2024-01-07T08:24:12;102563.28;;;0.44;82.94
59337;BME280;45115;52.002;4.686;2024-01-07T08:26:40;102566.63;;;0.43;83.19
59337;BME280;45115;52.002;4.686;2024-01-07T08:29:07;102571.63;;;0.42;82.56
59337;BME280;45115;52.002;4.686;2024-01-07T08:31:43;102576.75;;;0.45;82.88
59337;BME280;45115;52.002;4.686;2024-01-07T08:34:18;102570.91;;;0.46;83.20
59337;BME280;45115;52.002;4.686;2024-01-07T08:36:45;102576.84;;;0.48;82.74
59337;BME280;45115;52.002;4.686;2024-01-07T08:39:14;102581.06;;;0.47;82.85
59337;BME280;45115;52.002;4.686;2024-01-07T08:41:44;102575.72;;;0.38;82.88
59337;BME280;45115;52.002;4.686;2024-01-07T08:44:11;102586.66;;;0.39;83.01
59337;BME280;45115;52.002;4.686;2024-01-07T08:46:41;102581.66;;;0.40;82.93
59337;BME280;45115;52.002;4.686;2024-01-07T08:49:08;102588.72;;;0.50;83.33
59337;BME280;45115;52.002;4.686;2024-01-07T08:51:34;102591.16;;;0.47;83.13
59337;BME280;45115;52.002;4.686;2024-01-07T08:54:01;102606.41;;;0.50;82.61
59337;BME280;45115;52.002;4.686;2024-01-07T08:56:28;102607.25;;;0.51;82.08
59337;BME280;45115;52.002;4.686;2024-01-07T08:58:56;102610.66;;;0.51;81.66
59337;BME280;45115;52.002;4.686;2024-01-07T09:01:24;102608.84;;;0.47;81.52
59337;BME280;45115;52.002;4.686;2024-01-07T09:03:51;102609.84;;;0.52;81.87
59337;BME280;45115;52.002;4.686;2024-01-07T09:06:17;102616.59;;;0.53;81.85
59337;BME280;45115;52.002;4.686;2024-01-07T09:08:44;102622.47;;;0.52;80.83
59337;BME280;45115;52.002;4.686;2024-01-07T09:11:11;102608.22;;;0.54;81.44
59337;BME280;45115;52.002;4.686;2024-01-07T09:13:40;102614.09;;;0.55;80.83
59337;BME280;45115;52.002;4.686;2024-01-07T09:16:09;102623.22;;;0.50;81.26
59337;BME280;45115;52.002;4.686;2024-01-07T09:18:37;102630.97;;;0.56;81.28
59337;BME280;45115;52.002;4.686;2024-01-07T09:21:04;102622.97;;;0.42;81.00
59337;BME280;45115;52.002;4.686;2024-01-07T09:23:34;102626.97;;;0.36;80.67
59337;BME280;45115;52.002;4.686;2024-01-07T09:26:11;102634.75;;;0.42;80.43
59337;BME280;45115;52.002;4.686;2024-01-07T09:28:41;102639.44;;;0.31;81.01
59337;BME280;45115;52.002;4.686;2024-01-07T09:31:16;102645.81;;;0.45;81.17
59337;BME280;45115;52.002;4.686;2024-01-07T09:34:14;102645.00;;;0.46;80.54
59337;BME280;45115;52.002;4.686;2024-01-07T09:36:41;102658.22;;;0.39;79.86
59337;BME280;45115;52.002;4.686;2024-01-07T09:39:32;102646.38;;;0.37;80.65
59337;BME280;45115;52.002;4.686;2024-01-07T09:42:15;102654.13;;;0.43;80.95
59337;BME280;45115;52.002;4.686;2024-01-07T09:44:42;102671.88;;;0.44;80.14
59337;BME280;45115;52.002;4.686;2024-01-07T09:47:12;102675.09;;;0.40;79.18
59337;BME280;45115;52.002;4.686;2024-01-07T09:49:40;102658.19;;;0.38;79.91
59337;BME280;45115;52.002;4.686;2024-01-07T09:52:12;102665.00;;;0.40;79.82
59337;BME280;45115;52.002;4.686;2024-01-07T09:54:40;102677.38;;;0.32;79.58
59337;BME280;45115;52.002;4.686;2024-01-07T09:57:09;102673.00;;;0.27;79.84
59337;BME280;45115;52.002;4.686;2024-01-07T09:59:36;102683.28;;;0.33;79.78
59337;BME280;45115;52.002;4.686;2024-01-07T10:02:04;102686.75;;;0.37;79.35
59337;BME280;45115;52.002;4.686;2024-01-07T10:04:32;102707.72;;;0.34;79.28
59337;BME280;45115;52.002;4.686;2024-01-07T10:07:00;102700.09;;;0.32;79.33
59337;BME280;45115;52.002;4.686;2024-01-07T10:09:32;102700.03;;;0.31;79.81
59337;BME280;45115;52.002;4.686;2024-01-07T10:11:59;102689.28;;;0.37;78.99
59337;BME280;45115;52.002;4.686;2024-01-07T10:14:27;102702.72;;;0.36;78.38
59337;BME280;45115;52.002;4.686;2024-01-07T10:16:55;102693.53;;;0.38;78.78
59337;BME280;45115;52.002;4.686;2024-01-07T10:19:24;102703.69;;;0.39;78.71
59337;BME280;45115;52.002;4.686;2024-01-07T10:22:03;102700.59;;;0.48;78.89
59337;BME280;45115;52.002;4.686;2024-01-07T10:24:35;102701.75;;;0.57;77.38
59337;BME280;45115;52.002;4.686;2024-01-07T10:27:03;102708.28;;;0.51;76.87
59337;BME280;45115;52.002;4.686;2024-01-07T10:29:30;102699.41;;;0.63;77.04
59337;BME280;45115;52.002;4.686;2024-01-07T10:31:59;102704.38;;;0.60;76.19
59337;BME280;45115;52.002;4.686;2024-01-07T10:34:32;102710.97;;;0.57;76.37
59337;BME280;45115;52.002;4.686;2024-01-07T10:36:59;102711.03;;;0.58;75.84
59337;BME280;45115;52.002;4.686;2024-01-07T10:39:28;102726.50;;;0.67;76.05
59337;BME280;45115;52.002;4.686;2024-01-07T10:41:56;102707.38;;;0.76;75.61
59337;BME280;45115;52.002;4.686;2024-01-07T10:44:25;102713.47;;;0.82;75.41
59337;BME280;45115;52.002;4.686;2024-01-07T10:46:54;102713.34;;;0.78;76.53
59337;BME280;45115;52.002;4.686;2024-01-07T10:49:22;102717.81;;;0.59;75.85
59337;BME280;45115;52.002;4.686;2024-01-07T10:51:56;102736.25;;;0.57;75.64
59337;BME280;45115;52.002;4.686;2024-01-07T10:54:30;102734.56;;;0.57;75.14
59337;BME280;45115;52.002;4.686;2024-01-07T10:57:07;102731.00;;;0.76;74.99
59337;BME280;45115;52.002;4.686;2024-01-07T10:59:36;102737.06;;;0.83;74.11
59337;BME280;45115;52.002;4.686;2024-01-07T11:02:05;102723.91;;;0.93;73.78
59337;BME280;45115;52.002;4.686;2024-01-07T11:05:05;102746.31;;;0.82;72.73
59337;BME280;45115;52.002;4.686;2024-01-07T11:08:21;102728.69;;;0.84;73.33
59337;BME280;45115;52.002;4.686;2024-01-07T11:10:57;102723.63;;;0.84;72.93
59337;BME280;45115;52.002;4.686;2024-01-07T11:13:35;102726.19;;;0.85;72.32
59337;BME280;45115;52.002;4.686;2024-01-07T11:16:06;102720.84;;;0.75;72.13
59337;BME280;45115;52.002;4.686;2024-01-07T11:18:38;102734.78;;;0.63;71.81
59337;BME280;45115;52.002;4.686;2024-01-07T11:21:05;102733.44;;;0.48;71.88
59337;BME280;45115;52.002;4.686;2024-01-07T11:23:33;102731.44;;;0.64;73.14
59337;BME280;45115;52.002;4.686;2024-01-07T11:26:04;102729.22;;;0.74;72.76
59337;BME280;45115;52.002;4.686;2024-01-07T11:28:42;102723.88;;;0.64;73.08
59337;BME280;45115;52.002;4.686;2024-01-07T11:31:09;102722.97;;;0.62;73.37
59337;BME280;45115;52.002;4.686;2024-01-07T11:33:36;102732.78;;;0.53;73.30
59337;BME280;45115;52.002;4.686;2024-01-07T11:36:04;102725.44;;;0.61;73.60
59337;BME280;45115;52.002;4.686;2024-01-07T11:38:31;102724.38;;;0.80;72.45
59337;BME280;45115;52.002;4.686;2024-01-07T11:41:04;102720.22;;;0.82;72.26
59337;BME280;45115;52.002;4.686;2024-01-07T11:43:32;102726.72;;;1.02;72.27
59337;BME280;45115;52.002;4.686;2024-01-07T11:45:59;102726.78;;;1.04;71.54
59337;BME280;45115;52.002;4.686;2024-01-07T11:48:26;102730.16;;;1.04;70.71
59337;BME280;45115;52.002;4.686;2024-01-07T11:50:53;102732.78;;;1.07;70.11
59337;BME280;45115;52.002;4.686;2024-01-07T11:53:22;102726.59;;;0.97;70.65
59337;BME280;45115;52.002;4.686;2024-01-07T11:55:57;102732.97;;;0.86;70.94
59337;BME280;45115;52.002;4.686;2024-01-07T11:58:25;102733.72;;;0.84;71.44
59337;BME280;45115;52.002;4.686;2024-01-07T12:00:52;102734.13;;;0.96;71.17
59337;BME280;45115;52.002;4.686;2024-01-07T12:03:19;102736.75;;;0.99;70.39
59337;BME280;45115;52.002;4.686;2024-01-07T12:05:45;102741.28;;;1.11;70.72
59337;BME280;45115;52.002;4.686;2024-01-07T12:08:14;102733.28;;;1.24;70.81
59337;BME280;45115;52.002;4.686;2024-01-07T12:10:41;102743.06;;;1.42;69.68
59337;BME280;45115;52.002;4.686;2024-01-07T12:13:08;102744.25;;;1.53;69.72
59337;BME280;45115;52.002;4.686;2024-01-07T12:15:39;102745.59;;;1.42;69.88
59337;BME280;45115;52.002;4.686;2024-01-07T12:18:05;102740.38;;;1.35;70.11
59337;BME280;45115;52.002;4.686;2024-01-07T12:20:32;102750.66;;;1.13;69.76
59337;BME280;45115;52.002;4.686;2024-01-07T12:23:05;102753.19;;;1.13;70.86
59337;BME280;45115;52.002;4.686;2024-01-07T12:25:33;102756.00;;;1.22;70.90
59337;BME280;45115;52.002;4.686;2024-01-07T12:28:00;102758.13;;;1.10;70.60
59337;BME280;45115;52.002;4.686;2024-01-07T12:30:28;102764.00;;;1.08;70.72
59337;BME280;45115;52.002;4.686;2024-01-07T12:32:57;102758.50;;;0.94;70.29
59337;BME280;45115;52.002;4.686;2024-01-07T12:35:25;102755.16;;;0.95;69.48
59337;BME280;45115;52.002;4.686;2024-01-07T12:37:52;102752.72;;;0.98;69.47
59337;BME280;45115;52.002;4.686;2024-01-07T12:40:22;102755.41;;;1.02;69.28
59337;BME280;45115;52.002;4.686;2024-01-07T12:42:50;102761.81;;;0.93;68.99
59337;BME280;45115;52.002;4.686;2024-01-07T12:45:17;102762.84;;;0.98;68.97
59337;BME280;45115;52.002;4.686;2024-01-07T12:47:44;102760.56;;;1.06;69.81
59337;BME280;45115;52.002;4.686;2024-01-07T12:50:13;102769.91;;;1.08;69.67
59337;BME280;45115;52.002;4.686;2024-01-07T12:52:41;102774.00;;;1.05;69.70
59337;BME280;45115;52.002;4.686;2024-01-07T12:55:09;102778.19;;;1.04;70.39
59337;BME280;45115;52.002;4.686;2024-01-07T12:57:36;102776.63;;;1.08;69.73
59337;BME280;45115;52.002;4.686;2024-01-07T13:00:03;102773.19;;;1.06;68.55
59337;BME280;45115;52.002;4.686;2024-01-07T13:02:32;102774.09;;;0.81;66.52
59337;BME280;45115;52.002;4.686;2024-01-07T13:04:59;102775.19;;;0.63;66.09
59337;BME280;45115;52.002;4.686;2024-01-07T13:07:28;102776.72;;;0.58;67.70